Aérodrome :
LOGIN :

S'inscrire | Disclaimer

   EN    FR    IT 

 










Légende :    VFR   VFR Marginal   IFR   IFR Intensif   IFR Très Intensif
Visi : 
Plafond : 
>= 8 km
>= 3000ft
5 à 8 km
1000 à 3000 ft
1500m à 5 km
500 à 1000 ft
800 à 1500m
200 à 500 ft
< 800m
< 200 ft
Symboles :   Orages  Brouillard  Fortes neiges  Fortes précipitations  Vent > 20 kt
SIGMETs :   Divers  Orages  Givrage  Turbulence  Onde Orograph.  Cendres Volcan.






- Altitude de l'aérodrome : 796 ft
- Code IATA : SYT


LFLN - Saint-Yan

DERNIER METAR :
  • 041400Z AUTO VRB03KT 9999 FEW024 SCT029 BKN074 20/14 Q1012 TEMPO SHRA BKN014 FEW030TCU

METARs EXPIRÉS :
  • 041330Z AUTO VRB02KT 9999 SCT024 BKN031 BKN110 20/14 Q1013 TEMPO SHRA BKN014 FEW030TCU
  • 041300Z AUTO VRB03KT 9999 BKN024 19/14 Q1013 TEMPO SHRA BKN014 FEW030TCU
  • 041230Z AUTO VRB03KT 9999 BKN017 BKN024 BKN035 19/14 Q1013 TEMPO SHRA BKN014 FEW030TCU
  • 041200Z AUTO VRB02KT 9999 -RA SCT018 BKN026 BKN052 19/14 Q1013 TEMPO SHRA BKN014 FEW030TCU
  • 041130Z AUTO VRB02KT 9999 BKN014 OVC058 19/15 Q1013 TEMPO SHRA

TAF TAF LFLN
Valide du 04 à 12h jusqu'au 04 à 21h UTC


041100Z 0412/0421 VRB03KT 9999 SCT014 BKN045
TEMPO 0412/0421 SHRA BKN014 FEW030TCU



MET'MAP, la Météo Aéronautique d'un coup d'oeil ! - Copyright ORBIFLY Décembre 2007 - Disclaimer

ORBIFLY MET'MAP TEAM :

Programmation & Développement : Alexandra Zaïnal
Sur une idée originale de : Baudouin d'Aumeries
Assistance à la programmation : Marc-Olivier Méhu
Soutien technique & logistique : Manuel Goepfert

Contact : metmap@orbifly.com




SOURCES & CREDITS :

   NOAA